Airfield :
LOGIN :

Register | Disclaimer

   EN    FR    IT 

 










Legend :    VFR   Marginal VFR   IFR   Intensive IFR   Very Intensive IFR
Visi :
Ceiling :
>= 8 km
>= 3000ft
5 to 8 km
1000 to 3000 ft
1500m to 5 km
500 to 1000 ft
800 to 1500m
200 to 500 ft
< 800m
< 200 ft
Symbols :   Thunderstorms  Fog  Heavy snow  Heavy precipitations  Wind > 20 kt
SIGMETs :     Misc.  Thunderstorms  Icing  Turbulence  Mountain Waves  Volcanic Ashes






- Airport Elevation : 297 ft


EGVP - Middle Wallop

CURRENT METAR :
  • 270850Z 28010KT 9999 VCSH SCT017 BKN060 12/09 Q1003 BECMG SCT025 RMK WHT BECMG BLU

EXPIRED METARs :
  • 270820Z 27011KT 9999 SCT016 12/08 Q1003 BECMG SCT025 RMK WHT BECMG BLU
  • 270750Z 27011KT 9999 FEW012 11/08 Q1003 TEMPO SCT022 RMK BLU TEMPO WHT
  • 270724Z 26008KT 9999 FEW010 SCT044 10/08 Q1003 NOSIG RMK BLU BLU

TAF AMD TAF EGVP
Valid from the 27 at 09:00 until the 27 at 18:00 UTC


270926Z 2709/2718 29012KT 9999 FEW022 SCT045
PROB40
TEMPO 2709/2711 6000 -SHRA SCT022
PROB40
TEMPO 2709/2717 30015G25KT
ATIS : +44 1980 674 142



MET'MAP, your aeronautical weather chart ! - Copyright ORBIFLY December 2007 - Disclaimer

ORBIFLY MET'MAP TEAM :

Programming & Development : Alexandra Zaïnal
Original concept : Baudouin d'Aumeries
Technical & hardware support : Manuel Goepfert
Assistance : Marc-Olivier Méhu




SOURCES & CREDITS :

   NOAA